sensor_id;sensor_type;location;lat;lon;timestamp;P1;durP1;ratioP1;P2;durP2;ratioP2
68614;SDS011;55593;51.994;5.882;2023-03-01T00:00:22;9.95;;;4.47;;
68614;SDS011;55593;51.994;5.882;2023-03-01T00:02:52;7.82;;;4.65;;
68614;SDS011;55593;51.994;5.882;2023-03-01T00:05:21;7.40;;;5.32;;
68614;SDS011;55593;51.994;5.882;2023-03-01T00:07:54;8.27;;;4.95;;
68614;SDS011;55593;51.994;5.882;2023-03-01T00:10:23;8.10;;;4.65;;
68614;SDS011;55593;51.994;5.882;2023-03-01T00:12:53;7.40;;;5.00;;
68614;SDS011;55593;51.994;5.882;2023-03-01T00:15:22;7.15;;;5.18;;
68614;SDS011;55593;51.994;5.882;2023-03-01T00:17:51;9.60;;;5.10;;
68614;SDS011;55593;51.994;5.882;2023-03-01T00:20:20;9.15;;;5.30;;
68614;SDS011;55593;51.994;5.882;2023-03-01T00:22:49;9.18;;;5.25;;
68614;SDS011;55593;51.994;5.882;2023-03-01T00:25:21;8.35;;;5.47;;
68614;SDS011;55593;51.994;5.882;2023-03-01T00:27:50;9.68;;;5.70;;
68614;SDS011;55593;51.994;5.882;2023-03-01T00:30:19;9.00;;;5.93;;
68614;SDS011;55593;51.994;5.882;2023-03-01T00:32:48;9.90;;;6.30;;
68614;SDS011;55593;51.994;5.882;2023-03-01T00:35:18;9.80;;;5.60;;
68614;SDS011;55593;51.994;5.882;2023-03-01T00:37:48;8.57;;;5.50;;
68614;SDS011;55593;51.994;5.882;2023-03-01T00:40:26;12.55;;;6.53;;
68614;SDS011;55593;51.994;5.882;2023-03-01T00:42:56;10.88;;;6.40;;
68614;SDS011;55593;51.994;5.882;2023-03-01T00:45:25;11.20;;;7.40;;
68614;SDS011;55593;51.994;5.882;2023-03-01T00:47:55;9.95;;;6.25;;
68614;SDS011;55593;51.994;5.882;2023-03-01T00:50:24;11.77;;;7.03;;
68614;SDS011;55593;51.994;5.882;2023-03-01T00:52:54;10.32;;;7.05;;
68614;SDS011;55593;51.994;5.882;2023-03-01T00:55:26;13.00;;;6.65;;
68614;SDS011;55593;51.994;5.882;2023-03-01T00:57:55;9.75;;;6.13;;
68614;SDS011;55593;51.994;5.882;2023-03-01T01:00:24;11.02;;;6.65;;
68614;SDS011;55593;51.994;5.882;2023-03-01T01:02:54;8.90;;;5.95;;
68614;SDS011;55593;51.994;5.882;2023-03-01T01:05:23;15.50;;;6.20;;
68614;SDS011;55593;51.994;5.882;2023-03-01T01:07:52;11.07;;;6.40;;
68614;SDS011;55593;51.994;5.882;2023-03-01T01:10:22;10.07;;;6.30;;
68614;SDS011;55593;51.994;5.882;2023-03-01T01:12:54;10.07;;;6.47;;
68614;SDS011;55593;51.994;5.882;2023-03-01T01:15:24;9.68;;;6.95;;
68614;SDS011;55593;51.994;5.882;2023-03-01T01:17:53;11.20;;;6.55;;
68614;SDS011;55593;51.994;5.882;2023-03-01T01:20:22;14.35;;;6.65;;
68614;SDS011;55593;51.994;5.882;2023-03-01T01:22:51;10.65;;;7.10;;
68614;SDS011;55593;51.994;5.882;2023-03-01T01:34:42;17.02;;;9.43;;
68614;SDS011;55593;51.994;5.882;2023-03-01T01:37:12;10.43;;;6.65;;
68614;SDS011;55593;51.994;5.882;2023-03-01T01:39:41;12.57;;;7.85;;
68614;SDS011;55593;51.994;5.882;2023-03-01T01:42:11;13.13;;;7.10;;
68614;SDS011;55593;51.994;5.882;2023-03-01T01:44:44;12.35;;;8.13;;
68614;SDS011;55593;51.994;5.882;2023-03-01T01:47:15;11.32;;;7.63;;
68614;SDS011;55593;51.994;5.882;2023-03-01T01:49:51;11.60;;;7.05;;
68614;SDS011;55593;51.994;5.882;2023-03-01T01:52:23;12.85;;;7.22;;
68614;SDS011;55593;51.994;5.882;2023-03-01T01:54:54;14.13;;;7.38;;
68614;SDS011;55593;51.994;5.882;2023-03-01T01:57:28;9.68;;;6.63;;
68614;SDS011;55593;51.994;5.882;2023-03-01T02:00:00;12.35;;;7.25;;
68614;SDS011;55593;51.994;5.882;2023-03-01T02:02:39;14.20;;;7.50;;
68614;SDS011;55593;51.994;5.882;2023-03-01T02:05:13;11.20;;;6.68;;
68614;SDS011;55593;51.994;5.882;2023-03-01T02:07:45;11.88;;;6.85;;
68614;SDS011;55593;51.994;5.882;2023-03-01T02:10:19;9.90;;;7.00;;
68614;SDS011;55593;51.994;5.882;2023-03-01T02:12:49;10.70;;;6.63;;
68614;SDS011;55593;51.994;5.882;2023-03-01T02:15:18;10.52;;;6.82;;
68614;SDS011;55593;51.994;5.882;2023-03-01T02:17:47;10.18;;;7.22;;
68614;SDS011;55593;51.994;5.882;2023-03-01T02:20:20;11.35;;;6.35;;
68614;SDS011;55593;51.994;5.882;2023-03-01T02:22:54;12.13;;;6.80;;
68614;SDS011;55593;51.994;5.882;2023-03-01T02:25:30;10.45;;;6.50;;
68614;SDS011;55593;51.994;5.882;2023-03-01T02:28:05;10.20;;;7.45;;
68614;SDS011;55593;51.994;5.882;2023-03-01T02:30:42;9.50;;;6.38;;
68614;SDS011;55593;51.994;5.882;2023-03-01T02:33:24;10.00;;;6.78;;
68614;SDS011;55593;51.994;5.882;2023-03-01T02:35:54;10.43;;;7.25;;
68614;SDS011;55593;51.994;5.882;2023-03-01T02:38:23;10.60;;;6.95;;
68614;SDS011;55593;51.994;5.882;2023-03-01T02:44:01;11.50;;;6.18;;
68614;SDS011;55593;51.994;5.882;2023-03-01T02:46:33;9.18;;;6.47;;
68614;SDS011;55593;51.994;5.882;2023-03-01T02:49:16;10.18;;;6.47;;
68614;SDS011;55593;51.994;5.882;2023-03-01T02:51:50;10.23;;;6.78;;
68614;SDS011;55593;51.994;5.882;2023-03-01T02:54:38;12.75;;;6.88;;
68614;SDS011;55593;51.994;5.882;2023-03-01T02:57:09;12.00;;;6.80;;
68614;SDS011;55593;51.994;5.882;2023-03-01T02:59:38;10.15;;;6.85;;
68614;SDS011;55593;51.994;5.882;2023-03-01T03:02:19;12.23;;;7.60;;
68614;SDS011;55593;51.994;5.882;2023-03-01T03:05:04;10.75;;;7.13;;
68614;SDS011;55593;51.994;5.882;2023-03-01T03:07:36;9.75;;;6.35;;
68614;SDS011;55593;51.994;5.882;2023-03-01T03:10:08;11.18;;;6.93;;
68614;SDS011;55593;51.994;5.882;2023-03-01T03:12:39;8.93;;;6.20;;
68614;SDS011;55593;51.994;5.882;2023-03-01T03:15:09;14.18;;;6.93;;
68614;SDS011;55593;51.994;5.882;2023-03-01T03:17:42;10.82;;;6.95;;
68614;SDS011;55593;51.994;5.882;2023-03-01T03:20:12;10.43;;;6.78;;
68614;SDS011;55593;51.994;5.882;2023-03-01T03:22:45;10.00;;;6.18;;
68614;SDS011;55593;51.994;5.882;2023-03-01T03:25:16;11.80;;;7.18;;
68614;SDS011;55593;51.994;5.882;2023-03-01T03:27:47;11.38;;;6.40;;
68614;SDS011;55593;51.994;5.882;2023-03-01T03:30:23;8.88;;;6.13;;
68614;SDS011;55593;51.994;5.882;2023-03-01T03:32:56;10.52;;;6.63;;
68614;SDS011;55593;51.994;5.882;2023-03-01T03:35:27;9.00;;;5.85;;
68614;SDS011;55593;51.994;5.882;2023-03-01T03:37:58;9.32;;;5.93;;
68614;SDS011;55593;51.994;5.882;2023-03-01T03:40:33;8.48;;;5.85;;
68614;SDS011;55593;51.994;5.882;2023-03-01T03:43:04;11.95;;;6.53;;
68614;SDS011;55593;51.994;5.882;2023-03-01T03:45:34;10.70;;;6.45;;
68614;SDS011;55593;51.994;5.882;2023-03-01T03:48:07;8.10;;;5.93;;
68614;SDS011;55593;51.994;5.882;2023-03-01T03:50:38;10.60;;;6.70;;
68614;SDS011;55593;51.994;5.882;2023-03-01T03:53:08;8.82;;;5.90;;
68614;SDS011;55593;51.994;5.882;2023-03-01T03:55:38;9.98;;;6.60;;
68614;SDS011;55593;51.994;5.882;2023-03-01T03:58:08;10.30;;;6.45;;
68614;SDS011;55593;51.994;5.882;2023-03-01T04:00:39;9.45;;;6.28;;
68614;SDS011;55593;51.994;5.882;2023-03-01T04:03:12;10.27;;;5.97;;
68614;SDS011;55593;51.994;5.882;2023-03-01T04:05:42;10.65;;;5.85;;
68614;SDS011;55593;51.994;5.882;2023-03-01T04:08:11;7.85;;;5.80;;
68614;SDS011;55593;51.994;5.882;2023-03-01T04:10:41;9.07;;;6.20;;
68614;SDS011;55593;51.994;5.882;2023-03-01T04:13:11;9.10;;;5.80;;
68614;SDS011;55593;51.994;5.882;2023-03-01T04:15:42;8.60;;;6.25;;
68614;SDS011;55593;51.994;5.882;2023-03-01T04:18:15;9.27;;;5.40;;
68614;SDS011;55593;51.994;5.882;2023-03-01T04:20:48;7.82;;;6.00;;
68614;SDS011;55593;51.994;5.882;2023-03-01T04:23:21;11.98;;;6.13;;
68614;SDS011;55593;51.994;5.882;2023-03-01T04:25:51;8.23;;;5.65;;
68614;SDS011;55593;51.994;5.882;2023-03-01T04:28:23;11.35;;;5.70;;
68614;SDS011;55593;51.994;5.882;2023-03-01T04:30:54;11.95;;;8.02;;
68614;SDS011;55593;51.994;5.882;2023-03-01T04:33:28;10.32;;;6.22;;
68614;SDS011;55593;51.994;5.882;2023-03-01T04:35:58;9.18;;;6.38;;
68614;SDS011;55593;51.994;5.882;2023-03-01T04:38:31;11.57;;;6.43;;
68614;SDS011;55593;51.994;5.882;2023-03-01T04:41:00;10.85;;;5.65;;
68614;SDS011;55593;51.994;5.882;2023-03-01T04:43:29;9.95;;;5.80;;
68614;SDS011;55593;51.994;5.882;2023-03-01T04:46:00;11.18;;;6.57;;
68614;SDS011;55593;51.994;5.882;2023-03-01T04:48:34;11.55;;;6.93;;
68614;SDS011;55593;51.994;5.882;2023-03-01T04:51:04;9.27;;;6.25;;
68614;SDS011;55593;51.994;5.882;2023-03-01T04:53:35;10.30;;;6.72;;
68614;SDS011;55593;51.994;5.882;2023-03-01T04:56:05;10.57;;;6.60;;
68614;SDS011;55593;51.994;5.882;2023-03-01T04:58:34;8.88;;;6.18;;
68614;SDS011;55593;51.994;5.882;2023-03-01T05:01:08;10.40;;;6.03;;
68614;SDS011;55593;51.994;5.882;2023-03-01T05:03:44;10.00;;;6.15;;
68614;SDS011;55593;51.994;5.882;2023-03-01T05:06:14;8.73;;;5.57;;
68614;SDS011;55593;51.994;5.882;2023-03-01T05:08:44;10.20;;;6.40;;
68614;SDS011;55593;51.994;5.882;2023-03-01T05:11:13;11.52;;;6.97;;
68614;SDS011;55593;51.994;5.882;2023-03-01T05:13:43;10.38;;;6.53;;
68614;SDS011;55593;51.994;5.882;2023-03-01T05:16:12;9.07;;;6.15;;
68614;SDS011;55593;51.994;5.882;2023-03-01T05:18:45;12.32;;;6.72;;
68614;SDS011;55593;51.994;5.882;2023-03-01T05:21:16;12.13;;;6.38;;
68614;SDS011;55593;51.994;5.882;2023-03-01T05:23:45;10.50;;;6.63;;
68614;SDS011;55593;51.994;5.882;2023-03-01T05:26:15;9.25;;;6.28;;
68614;SDS011;55593;51.994;5.882;2023-03-01T05:28:45;10.52;;;6.40;;
68614;SDS011;55593;51.994;5.882;2023-03-01T05:31:14;9.23;;;5.80;;
68614;SDS011;55593;51.994;5.882;2023-03-01T05:33:46;10.25;;;6.97;;
68614;SDS011;55593;51.994;5.882;2023-03-01T05:36:15;9.98;;;5.90;;
68614;SDS011;55593;51.994;5.882;2023-03-01T05:38:44;11.30;;;6.18;;
68614;SDS011;55593;51.994;5.882;2023-03-01T05:41:14;11.05;;;6.05;;
68614;SDS011;55593;51.994;5.882;2023-03-01T05:43:43;10.98;;;6.05;;
68614;SDS011;55593;51.994;5.882;2023-03-01T05:46:12;9.93;;;6.28;;
68614;SDS011;55593;51.994;5.882;2023-03-01T05:48:41;9.68;;;6.03;;
68614;SDS011;55593;51.994;5.882;2023-03-01T05:51:13;10.52;;;5.88;;
68614;SDS011;55593;51.994;5.882;2023-03-01T05:53:43;10.93;;;5.82;;
68614;SDS011;55593;51.994;5.882;2023-03-01T05:56:12;11.65;;;6.13;;
68614;SDS011;55593;51.994;5.882;2023-03-01T05:58:41;12.63;;;5.97;;
68614;SDS011;55593;51.994;5.882;2023-03-01T06:01:11;10.20;;;6.50;;
68614;SDS011;55593;51.994;5.882;2023-03-01T06:03:41;8.88;;;5.97;;
68614;SDS011;55593;51.994;5.882;2023-03-01T06:06:13;10.95;;;6.05;;
68614;SDS011;55593;51.994;5.882;2023-03-01T06:08:42;11.10;;;6.07;;
68614;SDS011;55593;51.994;5.882;2023-03-01T06:11:11;11.23;;;6.60;;
68614;SDS011;55593;51.994;5.882;2023-03-01T06:13:40;9.73;;;5.80;;
68614;SDS011;55593;51.994;5.882;2023-03-01T06:16:10;12.15;;;6.35;;
68614;SDS011;55593;51.994;5.882;2023-03-01T06:18:39;12.23;;;7.15;;
68614;SDS011;55593;51.994;5.882;2023-03-01T06:21:09;11.95;;;6.10;;
68614;SDS011;55593;51.994;5.882;2023-03-01T06:23:41;11.52;;;6.68;;
68614;SDS011;55593;51.994;5.882;2023-03-01T06:26:10;11.00;;;6.32;;
68614;SDS011;55593;51.994;5.882;2023-03-01T06:28:39;11.35;;;7.75;;
68614;SDS011;55593;51.994;5.882;2023-03-01T06:31:10;9.95;;;6.13;;
68614;SDS011;55593;51.994;5.882;2023-03-01T06:33:39;9.48;;;6.30;;
68614;SDS011;55593;51.994;5.882;2023-03-01T06:36:10;10.18;;;6.82;;
68614;SDS011;55593;51.994;5.882;2023-03-01T06:38:42;10.20;;;6.57;;
68614;SDS011;55593;51.994;5.882;2023-03-01T06:41:11;12.60;;;6.60;;
68614;SDS011;55593;51.994;5.882;2023-03-01T06:43:40;9.23;;;6.10;;
68614;SDS011;55593;51.994;5.882;2023-03-01T06:46:09;10.63;;;6.20;;
68614;SDS011;55593;51.994;5.882;2023-03-01T06:48:38;11.63;;;6.25;;
68614;SDS011;55593;51.994;5.882;2023-03-01T06:51:08;10.23;;;6.30;;
68614;SDS011;55593;51.994;5.882;2023-03-01T06:53:37;11.57;;;6.10;;
68614;SDS011;55593;51.994;5.882;2023-03-01T06:56:08;13.63;;;6.85;;
68614;SDS011;55593;51.994;5.882;2023-03-01T06:58:38;11.70;;;6.32;;
68614;SDS011;55593;51.994;5.882;2023-03-01T07:01:07;9.65;;;5.60;;
68614;SDS011;55593;51.994;5.882;2023-03-01T07:03:36;11.23;;;6.32;;
68614;SDS011;55593;51.994;5.882;2023-03-01T07:06:06;9.75;;;6.63;;
68614;SDS011;55593;51.994;5.882;2023-03-01T07:08:35;10.50;;;5.93;;
68614;SDS011;55593;51.994;5.882;2023-03-01T07:11:04;12.50;;;6.00;;
68614;SDS011;55593;51.994;5.882;2023-03-01T07:13:36;9.60;;;5.97;;
68614;SDS011;55593;51.994;5.882;2023-03-01T07:16:06;11.85;;;6.57;;
68614;SDS011;55593;51.994;5.882;2023-03-01T07:18:36;10.68;;;5.70;;
68614;SDS011;55593;51.994;5.882;2023-03-01T07:21:05;11.05;;;6.25;;
68614;SDS011;55593;51.994;5.882;2023-03-01T07:23:35;10.48;;;6.50;;
68614;SDS011;55593;51.994;5.882;2023-03-01T07:26:04;10.02;;;5.97;;
68614;SDS011;55593;51.994;5.882;2023-03-01T07:28:36;9.38;;;5.70;;
68614;SDS011;55593;51.994;5.882;2023-03-01T07:31:05;9.60;;;5.38;;
68614;SDS011;55593;51.994;5.882;2023-03-01T07:33:34;8.82;;;5.32;;
68614;SDS011;55593;51.994;5.882;2023-03-01T07:36:04;13.00;;;6.50;;
68614;SDS011;55593;51.994;5.882;2023-03-01T07:38:34;11.45;;;7.15;;
68614;SDS011;55593;51.994;5.882;2023-03-01T07:41:03;10.20;;;5.72;;
68614;SDS011;55593;51.994;5.882;2023-03-01T07:43:33;11.13;;;6.43;;
68614;SDS011;55593;51.994;5.882;2023-03-01T07:46:04;11.52;;;5.85;;
68614;SDS011;55593;51.994;5.882;2023-03-01T07:48:33;9.20;;;6.07;;
68614;SDS011;55593;51.994;5.882;2023-03-01T07:51:03;10.90;;;6.10;;
68614;SDS011;55593;51.994;5.882;2023-03-01T07:53:34;9.77;;;6.75;;
68614;SDS011;55593;51.994;5.882;2023-03-01T07:56:03;10.07;;;6.53;;
68614;SDS011;55593;51.994;5.882;2023-03-01T07:58:36;13.40;;;6.88;;
68614;SDS011;55593;51.994;5.882;2023-03-01T08:01:07;8.38;;;5.60;;
68614;SDS011;55593;51.994;5.882;2023-03-01T08:03:38;11.82;;;5.65;;
68614;SDS011;55593;51.994;5.882;2023-03-01T08:06:08;11.77;;;6.90;;
68614;SDS011;55593;51.994;5.882;2023-03-01T08:08:38;13.02;;;6.93;;
68614;SDS011;55593;51.994;5.882;2023-03-01T08:11:09;12.95;;;6.40;;
68614;SDS011;55593;51.994;5.882;2023-03-01T08:13:43;9.65;;;6.20;;
68614;SDS011;55593;51.994;5.882;2023-03-01T08:16:13;12.43;;;6.45;;
68614;SDS011;55593;51.994;5.882;2023-03-01T08:18:43;8.98;;;6.30;;
68614;SDS011;55593;51.994;5.882;2023-03-01T08:21:13;10.68;;;6.13;;
68614;SDS011;55593;51.994;5.882;2023-03-01T08:23:44;10.93;;;6.22;;
68614;SDS011;55593;51.994;5.882;2023-03-01T08:26:14;9.18;;;5.70;;
68614;SDS011;55593;51.994;5.882;2023-03-01T08:28:47;12.68;;;6.07;;
68614;SDS011;55593;51.994;5.882;2023-03-01T08:31:17;8.48;;;5.88;;
68614;SDS011;55593;51.994;5.882;2023-03-01T08:33:48;9.45;;;6.05;;
68614;SDS011;55593;51.994;5.882;2023-03-01T08:36:21;11.05;;;6.07;;
68614;SDS011;55593;51.994;5.882;2023-03-01T08:38:50;9.38;;;5.60;;
68614;SDS011;55593;51.994;5.882;2023-03-01T08:41:20;7.88;;;5.00;;
68614;SDS011;55593;51.994;5.882;2023-03-01T08:43:52;11.75;;;6.07;;
68614;SDS011;55593;51.994;5.882;2023-03-01T08:46:24;11.02;;;5.45;;
68614;SDS011;55593;51.994;5.882;2023-03-01T08:48:54;10.50;;;5.32;;
68614;SDS011;55593;51.994;5.882;2023-03-01T08:51:24;9.50;;;5.85;;
68614;SDS011;55593;51.994;5.882;2023-03-01T08:53:54;9.38;;;6.18;;
68614;SDS011;55593;51.994;5.882;2023-03-01T08:56:24;8.23;;;4.95;;
68614;SDS011;55593;51.994;5.882;2023-03-01T08:58:55;8.57;;;5.45;;
68614;SDS011;55593;51.994;5.882;2023-03-01T09:01:25;9.10;;;5.28;;
68614;SDS011;55593;51.994;5.882;2023-03-01T09:03:54;8.35;;;5.20;;
68614;SDS011;55593;51.994;5.882;2023-03-01T09:06:23;10.10;;;4.93;;
68614;SDS011;55593;51.994;5.882;2023-03-01T09:08:53;10.90;;;5.72;;
68614;SDS011;55593;51.994;5.882;2023-03-01T09:11:22;10.48;;;5.47;;
68614;SDS011;55593;51.994;5.882;2023-03-01T09:13:51;8.88;;;5.00;;
68614;SDS011;55593;51.994;5.882;2023-03-01T09:16:23;9.57;;;5.03;;
68614;SDS011;55593;51.994;5.882;2023-03-01T09:18:53;8.00;;;5.15;;
68614;SDS011;55593;51.994;5.882;2023-03-01T09:21:23;7.63;;;4.63;;
68614;SDS011;55593;51.994;5.882;2023-03-01T09:23:52;8.10;;;4.80;;
68614;SDS011;55593;51.994;5.882;2023-03-01T09:26:21;9.35;;;4.57;;
68614;SDS011;55593;51.994;5.882;2023-03-01T09:28:51;7.72;;;4.55;;
68614;SDS011;55593;51.994;5.882;2023-03-01T09:31:24;10.15;;;5.38;;
68614;SDS011;55593;51.994;5.882;2023-03-01T09:33:53;6.97;;;4.78;;
68614;SDS011;55593;51.994;5.882;2023-03-01T09:36:23;7.90;;;4.88;;
68614;SDS011;55593;51.994;5.882;2023-03-01T09:38:54;6.72;;;4.07;;
68614;SDS011;55593;51.994;5.882;2023-03-01T09:41:31;8.00;;;4.53;;
68614;SDS011;55593;51.994;5.882;2023-03-01T09:44:15;7.32;;;4.20;;
68614;SDS011;55593;51.994;5.882;2023-03-01T09:46:52;8.82;;;4.47;;
68614;SDS011;55593;51.994;5.882;2023-03-01T09:49:23;8.43;;;5.38;;
68614;SDS011;55593;51.994;5.882;2023-03-01T09:51:55;10.88;;;6.00;;
68614;SDS011;55593;51.994;5.882;2023-03-01T09:54:26;13.32;;;8.07;;
68614;SDS011;55593;51.994;5.882;2023-03-01T09:57:04;10.43;;;6.80;;
68614;SDS011;55593;51.994;5.882;2023-03-01T09:59:38;16.13;;;8.73;;
68614;SDS011;55593;51.994;5.882;2023-03-01T10:02:30;12.85;;;7.75;;
68614;SDS011;55593;51.994;5.882;2023-03-01T10:05:11;13.43;;;8.23;;
68614;SDS011;55593;51.994;5.882;2023-03-01T10:07:58;14.75;;;7.75;;
68614;SDS011;55593;51.994;5.882;2023-03-01T10:10:35;13.38;;;7.78;;
68614;SDS011;55593;51.994;5.882;2023-03-01T10:13:10;12.27;;;8.52;;
68614;SDS011;55593;51.994;5.882;2023-03-01T10:15:44;11.65;;;8.32;;
68614;SDS011;55593;51.994;5.882;2023-03-01T10:18:24;13.02;;;8.88;;
68614;SDS011;55593;51.994;5.882;2023-03-01T10:20:55;14.32;;;9.48;;
68614;SDS011;55593;51.994;5.882;2023-03-01T10:23:27;12.45;;;8.20;;
68614;SDS011;55593;51.994;5.882;2023-03-01T10:28:58;8.80;;;6.28;;
68614;SDS011;55593;51.994;5.882;2023-03-01T10:31:36;15.05;;;7.30;;
68614;SDS011;55593;51.994;5.882;2023-03-01T10:34:15;12.18;;;7.43;;
68614;SDS011;55593;51.994;5.882;2023-03-01T10:36:48;10.32;;;6.78;;
68614;SDS011;55593;51.994;5.882;2023-03-01T10:39:18;15.77;;;6.38;;
68614;SDS011;55593;51.994;5.882;2023-03-01T10:41:53;11.60;;;7.07;;
68614;SDS011;55593;51.994;5.882;2023-03-01T10:44:37;12.65;;;5.88;;
68614;SDS011;55593;51.994;5.882;2023-03-01T10:47:16;9.77;;;5.93;;
68614;SDS011;55593;51.994;5.882;2023-03-01T10:49:59;13.05;;;6.45;;
68614;SDS011;55593;51.994;5.882;2023-03-01T10:52:30;7.93;;;5.53;;
68614;SDS011;55593;51.994;5.882;2023-03-01T10:55:03;9.95;;;5.85;;
68614;SDS011;55593;51.994;5.882;2023-03-01T10:57:35;9.35;;;5.93;;
68614;SDS011;55593;51.994;5.882;2023-03-01T11:00:17;9.90;;;5.40;;
68614;SDS011;55593;51.994;5.882;2023-03-01T11:03:01;8.13;;;5.22;;
68614;SDS011;55593;51.994;5.882;2023-03-01T11:05:34;9.48;;;5.63;;
68614;SDS011;55593;51.994;5.882;2023-03-01T11:08:04;8.82;;;4.80;;
68614;SDS011;55593;51.994;5.882;2023-03-01T11:10:36;8.32;;;5.05;;
68614;SDS011;55593;51.994;5.882;2023-03-01T11:13:06;7.63;;;4.45;;
68614;SDS011;55593;51.994;5.882;2023-03-01T11:15:36;10.82;;;5.30;;
68614;SDS011;55593;51.994;5.882;2023-03-01T11:18:05;9.40;;;5.30;;
68614;SDS011;55593;51.994;5.882;2023-03-01T11:20:51;12.18;;;5.47;;
68614;SDS011;55593;51.994;5.882;2023-03-01T11:23:22;10.68;;;5.38;;
68614;SDS011;55593;51.994;5.882;2023-03-01T11:25:54;8.35;;;4.85;;
68614;SDS011;55593;51.994;5.882;2023-03-01T11:28:24;9.98;;;4.95;;
68614;SDS011;55593;51.994;5.882;2023-03-01T11:30:55;11.13;;;5.20;;
68614;SDS011;55593;51.994;5.882;2023-03-01T11:33:30;8.82;;;4.40;;
68614;SDS011;55593;51.994;5.882;2023-03-01T11:36:08;8.18;;;5.07;;
68614;SDS011;55593;51.994;5.882;2023-03-01T11:38:44;8.38;;;4.97;;
68614;SDS011;55593;51.994;5.882;2023-03-01T11:41:14;12.02;;;5.05;;
68614;SDS011;55593;51.994;5.882;2023-03-01T11:43:47;7.07;;;4.65;;
68614;SDS011;55593;51.994;5.882;2023-03-01T11:46:26;8.50;;;4.88;;
68614;SDS011;55593;51.994;5.882;2023-03-01T11:49:06;9.82;;;5.13;;
68614;SDS011;55593;51.994;5.882;2023-03-01T11:51:49;10.35;;;5.57;;
68614;SDS011;55593;51.994;5.882;2023-03-01T11:54:31;7.53;;;4.78;;
68614;SDS011;55593;51.994;5.882;2023-03-01T11:57:11;9.30;;;6.10;;
68614;SDS011;55593;51.994;5.882;2023-03-01T11:59:51;9.20;;;5.28;;
68614;SDS011;55593;51.994;5.882;2023-03-01T12:05:46;10.02;;;5.72;;
68614;SDS011;55593;51.994;5.882;2023-03-01T12:08:27;8.18;;;5.45;;
68614;SDS011;55593;51.994;5.882;2023-03-01T12:11:01;9.15;;;5.38;;
68614;SDS011;55593;51.994;5.882;2023-03-01T12:13:47;9.07;;;5.20;;
68614;SDS011;55593;51.994;5.882;2023-03-01T12:16:27;9.70;;;5.85;;
68614;SDS011;55593;51.994;5.882;2023-03-01T12:21:57;10.35;;;5.22;;
68614;SDS011;55593;51.994;5.882;2023-03-01T12:24:54;6.70;;;4.30;;
68614;SDS011;55593;51.994;5.882;2023-03-01T12:27:47;7.65;;;4.95;;
68614;SDS011;55593;51.994;5.882;2023-03-01T12:30:44;7.13;;;4.78;;
68614;SDS011;55593;51.994;5.882;2023-03-01T12:33:22;11.05;;;5.25;;
68614;SDS011;55593;51.994;5.882;2023-03-01T12:36:03;13.00;;;5.70;;
68614;SDS011;55593;51.994;5.882;2023-03-01T12:38:40;8.85;;;5.63;;
68614;SDS011;55593;51.994;5.882;2023-03-01T12:41:30;8.90;;;5.05;;
68614;SDS011;55593;51.994;5.882;2023-03-01T12:44:22;18.33;;;5.55;;
68614;SDS011;55593;51.994;5.882;2023-03-01T12:47:04;8.43;;;5.35;;
68614;SDS011;55593;51.994;5.882;2023-03-01T12:49:39;10.50;;;5.22;;
68614;SDS011;55593;51.994;5.882;2023-03-01T12:52:11;9.45;;;5.13;;
68614;SDS011;55593;51.994;5.882;2023-03-01T12:54:42;7.30;;;4.95;;
68614;SDS011;55593;51.994;5.882;2023-03-01T12:57:17;8.20;;;5.72;;
68614;SDS011;55593;51.994;5.882;2023-03-01T12:59:51;8.88;;;5.03;;
68614;SDS011;55593;51.994;5.882;2023-03-01T13:02:30;8.80;;;5.10;;
68614;SDS011;55593;51.994;5.882;2023-03-01T13:05:05;8.95;;;5.15;;
68614;SDS011;55593;51.994;5.882;2023-03-01T13:07:48;8.07;;;4.88;;
68614;SDS011;55593;51.994;5.882;2023-03-01T13:10:22;7.30;;;5.18;;
68614;SDS011;55593;51.994;5.882;2023-03-01T13:15:47;9.32;;;5.65;;
68614;SDS011;55593;51.994;5.882;2023-03-01T13:18:29;9.43;;;5.72;;
68614;SDS011;55593;51.994;5.882;2023-03-01T13:21:01;12.65;;;6.88;;
68614;SDS011;55593;51.994;5.882;2023-03-01T13:23:32;17.42;;;5.60;;
68614;SDS011;55593;51.994;5.882;2023-03-01T13:26:04;12.52;;;5.38;;
68614;SDS011;55593;51.994;5.882;2023-03-01T13:28:49;7.38;;;5.07;;
68614;SDS011;55593;51.994;5.882;2023-03-01T13:34:40;7.32;;;4.88;;
68614;SDS011;55593;51.994;5.882;2023-03-01T13:37:30;9.13;;;4.65;;
68614;SDS011;55593;51.994;5.882;2023-03-01T13:40:02;11.18;;;5.38;;
68614;SDS011;55593;51.994;5.882;2023-03-01T13:42:38;7.20;;;4.57;;
68614;SDS011;55593;51.994;5.882;2023-03-01T13:45:19;7.90;;;4.95;;
68614;SDS011;55593;51.994;5.882;2023-03-01T13:47:52;8.77;;;4.68;;
68614;SDS011;55593;51.994;5.882;2023-03-01T13:50:24;8.10;;;5.57;;
68614;SDS011;55593;51.994;5.882;2023-03-01T13:52:55;11.70;;;5.82;;
68614;SDS011;55593;51.994;5.882;2023-03-01T13:55:36;11.60;;;4.97;;
68614;SDS011;55593;51.994;5.882;2023-03-01T13:58:14;9.38;;;5.35;;
68614;SDS011;55593;51.994;5.882;2023-03-01T14:00:54;7.90;;;4.55;;
68614;SDS011;55593;51.994;5.882;2023-03-01T14:03:24;8.85;;;4.93;;
68614;SDS011;55593;51.994;5.882;2023-03-01T14:05:58;10.35;;;5.22;;
68614;SDS011;55593;51.994;5.882;2023-03-01T14:08:36;12.65;;;4.90;;
68614;SDS011;55593;51.994;5.882;2023-03-01T14:11:20;7.07;;;5.13;;
68614;SDS011;55593;51.994;5.882;2023-03-01T14:17:06;9.55;;;4.97;;
68614;SDS011;55593;51.994;5.882;2023-03-01T14:19:54;9.15;;;5.53;;
68614;SDS011;55593;51.994;5.882;2023-03-01T14:22:25;7.70;;;4.93;;
68614;SDS011;55593;51.994;5.882;2023-03-01T14:24:56;8.88;;;5.88;;
68614;SDS011;55593;51.994;5.882;2023-03-01T14:27:28;8.55;;;5.32;;
68614;SDS011;55593;51.994;5.882;2023-03-01T14:30:02;7.28;;;4.68;;
68614;SDS011;55593;51.994;5.882;2023-03-01T14:32:35;7.85;;;5.07;;
68614;SDS011;55593;51.994;5.882;2023-03-01T14:35:18;7.53;;;5.28;;
68614;SDS011;55593;51.994;5.882;2023-03-01T14:37:48;10.50;;;4.97;;
68614;SDS011;55593;51.994;5.882;2023-03-01T14:40:22;8.73;;;5.88;;
68614;SDS011;55593;51.994;5.882;2023-03-01T14:42:53;9.25;;;4.82;;
68614;SDS011;55593;51.994;5.882;2023-03-01T14:45:24;7.55;;;4.93;;
68614;SDS011;55593;51.994;5.882;2023-03-01T14:47:58;9.35;;;5.25;;
68614;SDS011;55593;51.994;5.882;2023-03-01T14:50:28;9.90;;;5.28;;
68614;SDS011;55593;51.994;5.882;2023-03-01T14:52:59;9.65;;;4.50;;
68614;SDS011;55593;51.994;5.882;2023-03-01T14:55:30;11.32;;;5.30;;
68614;SDS011;55593;51.994;5.882;2023-03-01T14:58:02;9.02;;;5.30;;
68614;SDS011;55593;51.994;5.882;2023-03-01T15:00:32;7.18;;;4.60;;
68614;SDS011;55593;51.994;5.882;2023-03-01T15:03:06;7.78;;;5.05;;
68614;SDS011;55593;51.994;5.882;2023-03-01T15:05:39;10.80;;;5.22;;
68614;SDS011;55593;51.994;5.882;2023-03-01T15:08:12;9.93;;;4.72;;
68614;SDS011;55593;51.994;5.882;2023-03-01T15:10:55;6.68;;;4.60;;
68614;SDS011;55593;51.994;5.882;2023-03-01T15:13:26;10.65;;;4.97;;
68614;SDS011;55593;51.994;5.882;2023-03-01T15:16:05;6.60;;;4.50;;
68614;SDS011;55593;51.994;5.882;2023-03-01T15:18:42;7.55;;;4.60;;
68614;SDS011;55593;51.994;5.882;2023-03-01T15:21:16;7.50;;;4.78;;
68614;SDS011;55593;51.994;5.882;2023-03-01T15:23:49;8.15;;;4.43;;
68614;SDS011;55593;51.994;5.882;2023-03-01T15:26:27;7.57;;;4.38;;
68614;SDS011;55593;51.994;5.882;2023-03-01T15:28:58;8.50;;;4.57;;
68614;SDS011;55593;51.994;5.882;2023-03-01T15:31:28;8.77;;;4.10;;
68614;SDS011;55593;51.994;5.882;2023-03-01T15:34:10;8.75;;;4.25;;
68614;SDS011;55593;51.994;5.882;2023-03-01T15:36:41;8.02;;;3.88;;
68614;SDS011;55593;51.994;5.882;2023-03-01T15:39:32;7.18;;;4.05;;
68614;SDS011;55593;51.994;5.882;2023-03-01T15:42:04;6.80;;;4.38;;
68614;SDS011;55593;51.994;5.882;2023-03-01T15:44:36;9.63;;;4.38;;